Time;durP1;ratioP1;P1;durP2;ratioP2;P2;SDS_P1;SDS_P2;PMS_P1;PMS_P2;Temp;Humidity;BMP_temperature;BMP_pressure;BME280_temperature;BME280_humidity;BME280_pressure;Samples;Min_cycle;Max_cycle;Signal;HPM_P1;HPM_P2
2022/04/23 00:02:11;;;;;;;25.57;11.43;;;;;;;11.09;58.03;99289.81;4933176;29;20063;-72
2022/04/23 00:04:39;;;;;;;28.80;10.77;;;;;;;11.11;57.92;99295.78;4936247;29;20582;-72
2022/04/23 00:07:05;;;;;;;32.60;11.18;;;;;;;11.13;58.03;99293.56;4920153;29;20096;-72
2022/04/23 00:09:33;;;;;;;38.28;11.65;;;;;;;11.12;58.02;99291.94;4915759;29;20525;-71
2022/04/23 00:12:00;;;;;;;27.85;11.32;;;;;;;11.12;57.95;99285.66;4931434;29;20115;-72
2022/04/23 00:14:26;;;;;;;33.72;11.98;;;;;;;11.11;58.13;99278.53;4932047;29;20054;-75
2022/04/23 00:16:53;;;;;;;25.73;11.63;;;;;;;11.10;58.04;99280.47;4901520;29;20512;-72
2022/04/23 00:19:20;;;;;;;26.20;11.35;;;;;;;11.12;58.13;99283.75;4914897;29;21079;-73
2022/04/23 00:21:47;;;;;;;21.10;10.60;;;;;;;11.09;58.14;99283.50;4932409;29;20063;-72
2022/04/23 00:24:14;;;;;;;32.72;10.65;;;;;;;11.10;57.95;99282.41;4938522;29;20055;-72
2022/04/23 00:26:40;;;;;;;23.88;10.60;;;;;;;11.13;57.96;99290.84;4913068;29;20596;-72
2022/04/23 00:29:07;;;;;;;35.33;11.15;;;;;;;11.10;58.11;99288.69;4916641;29;20520;-72
2022/04/23 00:31:33;;;;;;;27.85;10.85;;;;;;;11.13;58.00;99292.75;4932590;29;20059;-72
2022/04/23 00:33:59;;;;;;;33.80;11.30;;;;;;;11.11;57.93;99301.25;4945710;28;20082;-71
2022/04/23 00:36:28;;;;;;;39.00;11.43;;;;;;;11.07;58.07;99292.81;4933770;29;20409;-73
2022/04/23 00:38:54;;;;;;;25.75;10.77;;;;;;;11.11;58.02;99294.97;4916820;29;20052;-72
2022/04/23 00:44:07;;;;;;;30.47;11.60;;;;;;;11.09;57.95;99300.75;4919408;29;20323;-72
2022/04/23 00:46:34;;;;;;;24.17;11.75;;;;;;;11.07;57.84;99295.56;4933141;29;20321;-72
2022/04/23 00:49:02;;;;;;;23.25;10.82;;;;;;;11.02;57.95;99292.06;4932609;29;20060;-72
2022/04/23 00:51:30;;;;;;;23.27;11.57;;;;;;;10.97;58.14;99283.91;4943647;29;20059;-72
2022/04/23 00:53:56;;;;;;;23.23;11.80;;;;;;;11.05;58.13;99303.25;4932689;29;20584;-72
2022/04/23 00:56:25;;;;;;;25.67;11.53;;;;;;;10.99;58.21;99295.38;4931751;29;20053;-72
2022/04/23 00:58:52;;;;;;;24.40;10.65;;;;;;;10.96;58.16;99287.75;4920185;29;20114;-73
2022/04/23 01:01:23;;;;;;;28.33;10.50;;;;;;;10.98;58.01;99291.00;4931898;29;20083;-72
2022/04/23 01:03:50;;;;;;;28.52;10.48;;;;;;;10.94;58.43;99287.22;4927843;29;20076;-73
2022/04/23 01:06:16;;;;;;;26.87;11.03;;;;;;;10.93;58.33;99286.41;4927784;29;20059;-73
2022/04/23 01:08:43;;;;;;;35.67;11.73;;;;;;;11.02;58.20;99279.19;4931366;29;20055;-73
2022/04/23 01:11:09;;;;;;;30.65;12.45;;;;;;;11.04;58.33;99298.03;4899124;29;20047;-74
2022/04/23 01:13:36;;;;;;;41.40;13.70;;;;;;;10.90;58.64;99292.47;4914279;29;20147;-73
2022/04/23 01:16:07;;;;;;;27.40;12.95;;;;;;;10.92;58.64;99293.78;4930887;29;20051;-73
2022/04/23 01:18:36;;;;;;;30.98;12.43;;;;;;;10.94;58.52;99287.22;4905669;29;20537;-72
2022/04/23 01:21:04;;;;;;;31.10;12.18;;;;;;;10.90;58.56;99290.53;4904014;29;20058;-73
2022/04/23 01:23:30;;;;;;;30.17;11.60;;;;;;;10.88;58.77;99291.94;4931014;29;20146;-72
2022/04/23 01:25:57;;;;;;;32.30;12.77;;;;;;;10.91;58.54;99285.88;4915474;29;20055;-72
2022/04/23 01:28:25;;;;;;;30.98;11.13;;;;;;;10.95;58.37;99284.19;4933554;29;20143;-72
2022/04/23 01:30:53;;;;;;;25.65;11.80;;;;;;;11.04;58.28;99284.38;4930814;29;20047;-71
2022/04/23 01:33:20;;;;;;;26.25;11.00;;;;;;;10.98;58.44;99283.59;4932970;29;20407;-72
2022/04/23 01:35:47;;;;;;;29.90;12.57;;;;;;;10.86;58.72;99280.47;4931424;29;20135;-72
2022/04/23 01:38:14;;;;;;;30.67;12.00;;;;;;;10.81;58.85;99278.59;4914324;29;20075;-72
2022/04/23 01:40:41;;;;;;;32.88;12.70;;;;;;;10.75;59.22;99272.38;4914296;29;20060;-71
2022/04/23 01:43:10;;;;;;;30.88;12.52;;;;;;;10.75;59.17;99277.84;4932164;29;20095;-71
2022/04/23 01:45:38;;;;;;;27.27;11.30;;;;;;;10.71;59.51;99271.31;4921796;29;20052;-73
2022/04/23 01:48:05;;;;;;;34.75;13.35;;;;;;;10.71;59.38;99265.84;4932723;29;20119;-71
2022/04/23 01:50:31;;;;;;;27.05;12.20;;;;;;;10.73;59.31;99271.84;4935309;29;20202;-75
2022/04/23 01:52:58;;;;;;;34.70;12.77;;;;;;;10.74;59.47;99278.09;4917479;29;20211;-72
2022/04/23 01:55:25;;;;;;;32.92;12.13;;;;;;;10.73;59.30;99273.75;4935094;29;20127;-74
2022/04/23 01:57:51;;;;;;;35.00;13.65;;;;;;;10.66;59.32;99263.16;4928726;29;20075;-74
2022/04/23 02:00:18;;;;;;;35.25;14.25;;;;;;;10.74;59.51;99280.84;4936239;29;20070;-72
2022/04/23 02:02:44;;;;;;;43.22;14.05;;;;;;;10.74;59.47;99272.63;4933376;29;20428;-72
2022/04/23 02:05:11;;;;;;;31.00;13.80;;;;;;;10.75;59.45;99274.28;4935302;29;20098;-72
2022/04/23 02:07:38;;;;;;;33.50;13.75;;;;;;;10.77;59.36;99274.78;4944032;29;20453;-72
2022/04/23 02:10:05;;;;;;;32.85;13.13;;;;;;;10.71;59.35;99265.84;4938690;29;20405;-72
2022/04/23 02:12:33;;;;;;;30.63;13.82;;;;;;;10.75;59.40;99274.28;4899256;29;20103;-72
2022/04/23 02:14:59;;;;;;;;;;;;;;;10.78;59.48;99276.44;4917131;29;20066;-71
2022/04/23 02:17:33;;;;;;;34.35;14.05;;;;;;;10.68;59.43;99266.41;4935076;29;19947;-72
2022/04/23 02:20:02;;;;;;;32.38;14.65;;;;;;;10.76;59.69;99274.00;4918577;29;20059;-72
2022/04/23 02:22:29;;;;;;;32.47;14.55;;;;;;;10.67;59.81;99278.44;4932285;29;20088;-74
2022/04/23 02:24:56;;;;;;;35.28;13.60;;;;;;;10.61;59.94;99272.25;4934484;29;20051;-74
2022/04/23 02:27:23;;;;;;;;;;;;;;;10.65;59.92;99277.91;4919345;29;20091;-74
2022/04/23 02:29:50;;;;;;;30.77;15.13;;;;;;;10.75;59.38;99277.00;4931324;29;19970;-74
2022/04/23 02:32:16;;;;;;;36.50;14.05;;;;;;;10.79;59.27;99275.34;4935048;29;20060;-72
2022/04/23 02:34:43;;;;;;;41.22;15.20;;;;;;;10.85;59.11;99278.81;4915877;29;20056;-72
2022/04/23 02:37:09;;;;;;;37.00;15.48;;;;;;;10.91;58.66;99275.75;4915671;29;20052;-72
2022/04/23 02:39:36;;;;;;;39.67;15.40;;;;;;;10.96;58.71;99276.81;4934530;29;20063;-71
2022/04/23 02:42:02;;;;;;;30.52;13.57;;;;;;;10.99;58.33;99276.22;4932415;29;20130;-74
2022/04/23 02:44:29;;;;;;;31.27;13.07;;;;;;;11.00;58.31;99266.91;4935260;29;20063;-71
2022/04/23 02:46:56;;;;;;;37.15;13.77;;;;;;;11.00;58.46;99269.66;4935516;29;20052;-72
2022/04/23 02:49:22;;;;;;;27.92;13.55;;;;;;;10.91;58.58;99274.94;4932320;29;20055;-72
2022/04/23 02:51:48;;;;;;;34.45;13.90;;;;;;;10.91;58.66;99273.00;4933707;29;20426;-74
2022/04/23 02:54:15;;;;;;;32.42;13.35;;;;;;;10.90;58.68;99281.53;4909117;29;20071;-74
2022/04/23 02:56:41;;;;;;;31.65;12.98;;;;;;;10.95;58.35;99269.72;4930966;29;20091;-75
2022/04/23 02:59:07;;;;;;;25.60;13.25;;;;;;;10.99;58.41;99273.50;4915504;29;20082;-75
2022/04/23 03:01:37;;;;;;;25.05;12.77;;;;;;;10.92;58.54;99262.88;4932941;29;20059;-74
2022/04/23 03:04:05;;;;;;;29.95;13.38;;;;;;;10.98;58.19;99275.41;4918221;29;20061;-70
2022/04/23 03:06:31;;;;;;;29.52;12.82;;;;;;;11.01;58.28;99271.28;4920965;29;20059;-75
2022/04/23 03:09:02;;;;;;;31.00;13.88;;;;;;;10.85;58.54;99252.28;4916375;29;20054;-74
2022/04/23 03:11:29;;;;;;;25.27;11.95;;;;;;;11.02;58.62;99270.16;4934663;29;20056;-71
2022/04/23 03:13:56;;;;;;;34.88;13.32;;;;;;;11.02;58.53;99270.16;4932017;29;20531;-74
2022/04/23 03:16:22;;;;;;;28.07;12.47;;;;;;;11.00;58.82;99275.13;4915007;29;20051;-74
2022/04/23 03:18:48;;;;;;;28.20;12.27;;;;;;;10.98;58.97;99266.38;4934053;29;20311;-73
2022/04/23 03:21:16;;;;;;;38.20;11.95;;;;;;;11.00;59.04;99269.66;4919415;29;20154;-73
2022/04/23 03:23:42;;;;;;;27.02;12.48;;;;;;;11.02;58.96;99271.00;4934945;29;20063;-73
2022/04/23 03:26:08;;;;;;;33.05;12.25;;;;;;;11.02;59.06;99268.25;4928150;29;20413;-74
2022/04/23 03:28:35;;;;;;;29.35;11.57;;;;;;;11.01;59.16;99272.09;4943155;29;20125;-73
2022/04/23 03:31:02;;;;;;;31.65;12.70;;;;;;;10.98;59.17;99269.94;4953114;29;20611;-72
2022/04/23 03:33:28;;;;;;;27.25;13.15;;;;;;;10.95;59.31;99261.50;4939494;29;20060;-73
2022/04/23 03:35:55;;;;;;;27.88;12.73;;;;;;;11.02;59.19;99272.91;4920282;29;20142;-73
2022/04/23 03:38:22;;;;;;;32.60;11.70;;;;;;;11.04;59.34;99273.41;4931998;29;20596;-72
2022/04/23 03:40:53;;;;;;;32.38;12.52;;;;;;;11.07;58.97;99272.84;4933428;29;20064;-72
2022/04/23 03:43:20;;;;;;;25.35;11.95;;;;;;;11.04;59.03;99266.03;4914920;29;20118;-73
2022/04/23 03:45:47;;;;;;;29.77;11.35;;;;;;;11.06;58.98;99263.00;4915315;29;20048;-73
2022/04/23 03:48:14;;;;;;;34.42;12.40;;;;;;;11.04;59.20;99277.00;4917679;29;20068;-73
2022/04/23 03:50:40;;;;;;;33.80;12.63;;;;;;;10.87;59.95;99269.22;4916706;29;20108;-74
2022/04/23 03:53:08;;;;;;;30.83;13.48;;;;;;;10.92;60.16;99280.09;4932454;29;20555;-74
2022/04/23 03:55:36;;;;;;;34.20;12.90;;;;;;;11.01;59.87;99279.47;4914532;29;20059;-72
2022/04/23 03:58:02;;;;;;;31.65;13.38;;;;;;;10.95;60.36;99272.44;4933866;29;20432;-73
2022/04/23 04:00:29;;;;;;;37.40;14.38;;;;;;;10.88;60.54;99270.84;4932091;29;20138;-74
2022/04/23 04:02:55;;;;;;;34.47;15.25;;;;;;;10.88;60.78;99275.53;4946730;29;20185;-73
2022/04/23 04:05:22;;;;;;;34.63;14.70;;;;;;;10.90;60.88;99276.03;4953680;29;20512;-74
2022/04/23 04:07:49;;;;;;;32.72;14.52;;;;;;;10.92;60.71;99282.03;4945373;29;20143;-74
2022/04/23 04:10:17;;;;;;;41.95;15.70;;;;;;;10.95;60.95;99272.44;4933822;29;20559;-73
2022/04/23 04:12:44;;;;;;;55.47;15.88;;;;;;;10.98;60.74;99275.41;4929869;29;20066;-73
2022/04/23 04:15:15;;;;;;;39.35;15.82;;;;;;;10.97;60.92;99270.22;4934423;29;20106;-73
2022/04/23 04:17:43;;;;;;;35.08;14.43;;;;;;;10.96;61.01;99263.13;4933746;29;20067;-73
2022/04/23 04:20:11;;;;;;;31.75;14.75;;;;;;;11.02;60.95;99265.53;4938216;29;20056;-73
2022/04/23 04:22:38;;;;;;;31.38;14.65;;;;;;;10.99;60.83;99263.34;4915462;29;20460;-74
2022/04/23 04:25:06;;;;;;;35.67;15.67;;;;;;;11.13;61.02;99274.44;4933621;29;20116;-74
2022/04/23 04:27:32;;;;;;;41.10;14.77;;;;;;;11.16;60.90;99273.00;4931247;29;20393;-74
2022/04/23 04:29:59;;;;;;;34.92;14.63;;;;;;;11.18;61.08;99271.63;4928934;29;20087;-74
2022/04/23 04:32:26;;;;;;;37.55;15.65;;;;;;;11.09;61.11;99253.41;4930392;29;20457;-74
2022/04/23 04:34:52;;;;;;;35.35;15.73;;;;;;;11.26;61.32;99274.84;4932970;29;20062;-74
2022/04/23 04:37:18;;;;;;;41.63;16.83;;;;;;;11.31;61.35;99274.75;4916328;29;20082;-74
2022/04/23 04:39:44;;;;;;;39.05;17.40;;;;;;;11.32;61.52;99276.38;4933349;29;20079;-73
2022/04/23 04:42:11;;;;;;;45.17;16.42;;;;;;;11.28;61.51;99276.16;4916248;29;20064;-73
2022/04/23 04:44:37;;;;;;;34.75;16.00;;;;;;;11.33;61.58;99275.28;4915029;29;20580;-73
2022/04/23 04:47:11;;;;;;;41.03;15.82;;;;;;;11.39;61.27;99276.03;4937182;29;20059;-74
2022/04/23 04:49:39;;;;;;;35.78;15.77;;;;;;;11.40;61.09;99275.75;4931548;29;20078;-74
2022/04/23 04:52:06;;;;;;;32.17;15.88;;;;;;;11.48;60.89;99272.34;4930842;29;20052;-73
2022/04/23 04:54:32;;;;;;;31.30;15.40;;;;;;;11.60;60.57;99265.63;4929778;29;20051;-74
2022/04/23 04:57:02;;;;;;;31.33;15.80;;;;;;;11.54;60.34;99272.28;4926903;29;20056;-74
2022/04/23 04:59:31;;;;;;;29.90;16.30;;;;;;;11.55;60.19;99272.00;4919350;29;20051;-74
2022/04/23 05:01:59;;;;;;;35.58;17.58;;;;;;;11.57;60.17;99274.44;4935114;29;20111;-73
2022/04/23 05:04:27;;;;;;;36.53;17.48;;;;;;;11.45;60.59;99275.69;4932612;29;20047;-74
2022/04/23 05:06:53;;;;;;;46.47;20.63;;;;;;;11.41;60.80;99279.28;4931352;29;20056;-74
2022/04/23 05:09:19;;;;;;;39.42;18.98;;;;;;;11.42;60.72;99273.53;4932508;29;20529;-74
2022/04/23 05:11:45;;;;;;;44.08;20.73;;;;;;;11.47;60.84;99278.09;4916726;29;20150;-73
2022/04/23 05:14:11;;;;;;;33.80;19.15;;;;;;;11.46;60.90;99280.03;4915232;29;20071;-74
2022/04/23 05:16:37;;;;;;;32.10;18.33;;;;;;;11.52;60.72;99277.22;4930242;29;20055;-75
2022/04/23 05:19:04;;;;;;;42.33;19.98;;;;;;;11.49;60.82;99278.66;4916402;29;20462;-75
2022/04/23 05:21:31;;;;;;;37.92;17.65;;;;;;;11.51;60.80;99281.06;4932145;29;20428;-74
2022/04/23 05:23:57;;;;;;;43.90;19.90;;;;;;;11.46;60.84;99277.31;4932365;29;20126;-73
2022/04/23 05:26:23;;;;;;;37.45;16.25;;;;;;;11.50;60.56;99269.34;4930501;29;20055;-74
2022/04/23 05:28:50;;;;;;;42.65;16.77;;;;;;;11.52;60.31;99269.84;4932028;29;20067;-74
2022/04/23 05:31:16;;;;;;;33.92;15.60;;;;;;;11.39;60.49;99274.09;4916677;29;20047;-74
2022/04/23 05:33:42;;;;;;;29.98;14.73;;;;;;;11.29;60.59;99266.84;4927544;29;20059;-74
2022/04/23 05:36:08;;;;;;;39.58;14.60;;;;;;;11.43;60.28;99271.59;4930129;29;20521;-74
2022/04/23 05:38:36;;;;;;;35.65;15.63;;;;;;;11.34;60.28;99255.84;4929366;29;20588;-74
2022/04/23 05:41:03;;;;;;;36.38;16.80;;;;;;;11.51;60.13;99275.59;4927733;29;20142;-74
2022/04/23 05:43:29;;;;;;;38.00;15.98;;;;;;;11.43;60.49;99277.06;4927988;29;20143;-74
2022/04/23 05:45:57;;;;;;;29.17;14.98;;;;;;;11.42;60.59;99272.72;4924636;29;20142;-74
2022/04/23 05:48:23;;;;;;;34.33;15.98;;;;;;;11.34;60.99;99266.78;4929428;29;20520;-74
2022/04/23 05:50:50;;;;;;;27.40;15.57;;;;;;;11.46;60.61;99263.63;4928391;29;20059;-73
2022/04/23 05:53:16;;;;;;;31.38;16.25;;;;;;;11.66;60.22;99264.44;4928034;29;20075;-72
2022/04/23 05:55:43;;;;;;;32.75;16.40;;;;;;;11.69;60.15;99261.09;4911143;29;20064;-74
2022/04/23 05:58:09;;;;;;;42.13;17.17;;;;;;;11.82;59.82;99261.50;4931514;29;20064;-74
2022/04/23 06:00:36;;;;;;;39.67;17.25;;;;;;;11.76;59.84;99247.88;4912102;29;20079;-74
2022/04/23 06:03:02;;;;;;;37.58;17.08;;;;;;;11.87;59.83;99262.22;4914406;29;20610;-74
2022/04/23 06:05:28;;;;;;;34.17;17.05;;;;;;;11.94;59.64;99253.66;4931386;29;20049;-73
2022/04/23 06:07:54;;;;;;;38.88;17.05;;;;;;;12.03;59.65;99259.28;4933080;29;20047;-73
2022/04/23 06:10:21;;;;;;;34.13;16.77;;;;;;;12.18;59.39;99258.25;4928422;29;20083;-73
2022/04/23 06:12:47;;;;;;;35.50;16.20;;;;;;;12.32;58.81;99259.09;4929929;29;20067;-74
2022/04/23 06:15:14;;;;;;;31.63;16.10;;;;;;;12.41;58.57;99258.41;4931564;29;20623;-74
2022/04/23 06:17:40;;;;;;;39.65;16.48;;;;;;;12.43;58.27;99254.28;4898656;29;20107;-73
2022/04/23 06:20:08;;;;;;;34.75;16.13;;;;;;;12.40;57.91;99254.84;4914877;29;20389;-74
2022/04/23 06:22:34;;;;;;;32.70;16.65;;;;;;;12.45;57.68;99264.91;4915499;29;20086;-74
2022/04/23 06:25:01;;;;;;;31.85;16.58;;;;;;;12.53;57.48;99266.97;4932535;29;20066;-73
2022/04/23 06:27:30;;;;;;;28.75;15.40;;;;;;;12.59;57.05;99264.97;4914018;29;20054;-74
2022/04/23 06:29:58;;;;;;;28.50;14.75;;;;;;;12.63;56.77;99261.31;4930932;29;20055;-73
2022/04/23 06:32:24;;;;;;;28.17;15.82;;;;;;;12.67;56.41;99255.25;4932597;29;20055;-73
2022/04/23 06:34:50;;;;;;;35.45;16.48;;;;;;;12.81;56.50;99267.03;4934680;29;20055;-73
2022/04/23 06:37:18;;;;;;;40.90;17.33;;;;;;;12.88;56.51;99269.38;4916692;29;20127;-74
2022/04/23 06:39:44;;;;;;;33.22;17.63;;;;;;;12.92;56.35;99267.66;4932014;29;20068;-74
2022/04/23 06:42:10;;;;;;;30.50;17.45;;;;;;;12.90;56.32;99272.63;4940328;29;20062;-74
2022/04/23 06:44:39;;;;;;;33.60;17.95;;;;;;;12.90;56.00;99267.94;4919823;29;20052;-75
2022/04/23 06:47:06;;;;;;;37.20;19.60;;;;;;;12.94;56.07;99267.34;4918100;29;20056;-74
2022/04/23 06:49:34;;;;;;;40.97;21.88;;;;;;;13.00;56.25;99275.16;4933381;29;20463;-74
2022/04/23 06:52:01;;;;;;;54.78;23.50;;;;;;;12.99;56.07;99270.00;4921338;29;20060;-75
2022/04/23 06:54:28;;;;;;;48.67;23.27;;;;;;;12.95;56.25;99267.03;4923466;29;20055;-73
2022/04/23 06:56:54;;;;;;;45.97;21.75;;;;;;;12.94;56.29;99267.34;4933016;29;20066;-75
2022/04/23 06:59:20;;;;;;;39.38;21.67;;;;;;;12.93;55.94;99269.28;4933073;29;20693;-74
2022/04/23 07:01:46;;;;;;;50.17;26.65;;;;;;;12.92;55.69;99270.41;4931959;29;20595;-73
2022/04/23 07:04:13;;;;;;;50.53;28.77;;;;;;;12.94;55.65;99272.81;4941433;29;20063;-73
2022/04/23 07:06:40;;;;;;;56.45;26.73;;;;;;;12.84;55.44;99266.44;4907213;29;20060;-73
2022/04/23 07:09:06;;;;;;;51.03;26.80;;;;;;;12.89;55.54;99266.31;4930508;29;20059;-73
2022/04/23 07:11:33;;;;;;;41.88;23.27;;;;;;;12.98;55.25;99260.16;4916798;29;20056;-73
2022/04/23 07:14:00;;;;;;;41.83;24.02;;;;;;;13.05;55.02;99258.63;4931593;29;20139;-73
2022/04/23 07:16:26;;;;;;;43.40;24.63;;;;;;;13.14;54.79;99250.50;4930959;29;20060;-73
2022/04/23 07:18:55;;;;;;;48.88;25.95;;;;;;;13.19;54.72;99258.63;4915332;29;20055;-73
2022/04/23 07:21:22;;;;;;;45.55;26.35;;;;;;;13.27;54.44;99259.03;4928167;29;20056;-73
2022/04/23 07:24:05;;;;;;;61.35;29.85;;;;;;;13.27;54.38;99259.81;4949185;29;20051;-73
2022/04/23 07:26:36;;;;;;;51.13;26.38;;;;;;;13.37;53.99;99266.25;4938994;29;20435;-73
2022/04/23 07:29:05;;;;;;;52.53;27.98;;;;;;;13.39;53.80;99250.28;4897177;29;20060;-74
2022/04/23 07:31:31;;;;;;;51.92;29.40;;;;;;;13.39;53.72;99258.50;4911857;29;20066;-72
2022/04/23 07:39:31;;;;;;;51.47;26.23;;;;;;;13.22;54.13;99246.22;4931885;29;20099;-72
2022/04/23 07:41:58;;;;;;;44.27;26.10;;;;;;;13.29;53.94;99243.06;4938111;29;20060;-74
2022/04/23 07:44:25;;;;;;;48.05;26.13;;;;;;;13.40;53.74;99247.19;4916678;29;20062;-75
2022/04/23 07:46:51;;;;;;;45.70;24.03;;;;;;;13.50;53.33;99245.41;4915416;29;20104;-73
2022/04/23 07:49:17;;;;;;;41.90;24.52;;;;;;;13.53;53.02;99245.59;4932132;29;20052;-73
2022/04/23 07:51:49;;;;;;;39.75;22.83;;;;;;;13.62;53.07;99251.19;4923441;29;20430;-74
2022/04/23 07:54:15;;;;;;;38.55;22.48;;;;;;;13.69;52.67;99245.25;4932953;29;20063;-73
2022/04/23 07:56:42;;;;;;;44.13;23.75;;;;;;;13.73;52.44;99244.31;4932121;29;20134;-73
2022/04/23 07:59:08;;;;;;;46.67;23.10;;;;;;;13.81;52.23;99237.25;4929488;29;20557;-73
2022/04/23 08:01:35;;;;;;;40.58;23.83;;;;;;;13.92;52.08;99246.09;4930709;29;20189;-73
2022/04/23 08:04:03;;;;;;;50.10;25.60;;;;;;;13.99;51.52;99245.69;4922642;29;20115;-73
2022/04/23 08:06:30;;;;;;;;;;;;;;;14.03;51.25;99241.97;4927008;29;20300;-72
2022/04/23 08:08:57;;;;;;;56.78;30.00;;;;;;;14.03;51.48;99239.22;4924541;29;19930;-74
2022/04/23 08:11:23;;;;;;;60.67;31.45;;;;;;;14.03;51.42;99239.22;4909887;29;20147;-74
2022/04/23 08:13:52;;;;;;;72.60;35.13;;;;;;;14.06;51.38;99242.50;4946522;29;20131;-73
2022/04/23 08:16:28;;;;;;;62.95;35.63;;;;;;;14.09;51.14;99241.88;4930690;29;20087;-75
2022/04/23 08:18:54;;;;;;;67.22;36.47;;;;;;;14.10;51.19;99235.25;4938419;29;20055;-74
2022/04/23 08:21:22;;;;;;;68.07;38.43;;;;;;;14.15;50.92;99232.34;4943023;29;20305;-73
2022/04/23 08:23:48;;;;;;;58.30;35.17;;;;;;;14.16;50.91;99237.56;4919144;29;20103;-73
2022/04/23 08:26:15;;;;;;;57.97;32.08;;;;;;;14.22;50.70;99237.41;4885256;29;20056;-74
2022/04/23 08:31:26;;;;;;;51.78;29.23;;;;;;;14.30;50.86;99233.94;4927571;29;20055;-73
2022/04/23 08:33:58;;;;;;;61.47;29.50;;;;;;;14.39;50.46;99234.78;4923943;29;20097;-74
2022/04/23 08:36:26;;;;;;;46.10;25.95;;;;;;;14.48;50.48;99236.78;4930928;29;20062;-73
2022/04/23 08:38:56;;;;;;;40.90;24.85;;;;;;;14.56;50.18;99228.56;4933335;29;20071;-74
2022/04/23 08:41:28;;;;;;;46.30;22.58;;;;;;;14.64;49.91;99223.41;4942141;29;20590;-74
2022/04/23 08:43:56;;;;;;;45.22;22.33;;;;;;;14.70;49.62;99239.47;4933457;29;20047;-76
2022/04/23 08:46:25;;;;;;;41.63;20.45;;;;;;;14.74;49.45;99232.25;4943640;29;20113;-75
2022/04/23 08:49:03;;;;;;;35.08;19.77;;;;;;;14.78;49.23;99226.91;4951626;29;20083;-76
2022/04/23 08:51:34;;;;;;;34.10;18.58;;;;;;;14.79;48.96;99228.53;4941435;29;20082;-75
2022/04/23 08:54:05;;;;;;;45.03;20.90;;;;;;;14.76;48.97;99231.13;4922529;29;20056;-74
2022/04/23 08:56:32;;;;;;;36.60;19.75;;;;;;;14.83;48.38;99225.97;4920741;29;20142;-73
2022/04/23 08:58:59;;;;;;;37.20;18.92;;;;;;;14.89;47.91;99220.00;4927716;29;20063;-73
2022/04/23 09:01:34;;;;;;;37.90;18.45;;;;;;;15.04;47.75;99217.97;4931466;29;20055;-73
2022/04/23 09:04:04;;;;;;;37.50;18.60;;;;;;;15.22;47.40;99220.75;4930781;29;20047;-73
2022/04/23 09:06:41;;;;;;;;;;;;;;;15.31;47.50;99224.34;5348545;23;20048;-75
2022/04/23 09:09:15;;;;;;;32.92;16.02;;;;;;;15.34;46.71;99223.72;4941586;28;20445;-76
2022/04/23 09:11:48;;;;;;;23.13;14.25;;;;;;;15.32;46.34;99220.47;4933732;28;20146;-77
2022/04/23 09:14:26;;;;;;;31.30;15.23;;;;;;;15.40;46.40;99221.63;4950854;29;20059;-74
2022/04/23 09:25:35;;;;;;;26.02;14.05;;;;;;;15.63;45.29;99218.72;4944320;28;20059;-76
2022/04/23 09:28:15;;;;;;;25.75;14.80;;;;;;;15.64;45.45;99217.59;4936446;29;20086;-76
2022/04/23 09:30:49;;;;;;;31.38;15.40;;;;;;;15.56;45.11;99211.75;4941507;28;20062;-81
2022/04/23 09:33:27;;;;;;;26.70;14.65;;;;;;;15.58;45.00;99211.41;4954773;28;20542;-80
2022/04/23 09:35:58;;;;;;;24.23;14.38;;;;;;;15.41;45.38;99201.22;4948619;28;20062;-77
2022/04/23 09:38:48;;;;;;;25.30;14.63;;;;;;;15.35;45.47;99197.78;4884607;28;20048;-78
2022/04/23 09:41:32;;;;;;;28.70;14.95;;;;;;;15.15;45.54;99188.19;4931745;29;20066;-75
2022/04/23 09:44:12;;;;;;;24.50;14.80;;;;;;;15.21;46.05;99205.38;4950138;28;20058;-73
2022/04/23 09:46:45;;;;;;;28.80;15.70;;;;;;;15.13;46.47;99216.03;4956380;28;20134;-74
2022/04/23 09:49:23;;;;;;;23.90;14.63;;;;;;;15.09;46.48;99214.25;4935143;29;20150;-75
2022/04/23 09:52:02;;;;;;;25.38;14.25;;;;;;;15.07;46.90;99203.56;4940177;28;20192;-76
2022/04/23 09:54:31;;;;;;;29.27;15.32;;;;;;;15.06;46.54;99204.69;4949534;29;20146;-75
2022/04/23 09:57:00;;;;;;;27.92;14.13;;;;;;;15.04;46.58;99206.94;4939645;29;20055;-76
2022/04/23 09:59:31;;;;;;;26.40;13.05;;;;;;;14.95;46.69;99195.91;4925191;29;20062;-77
2022/04/23 10:01:59;;;;;;;24.40;13.38;;;;;;;14.98;46.83;99206.28;4950131;28;20546;-78
2022/04/23 10:04:34;;;;;;;25.08;13.23;;;;;;;14.63;46.66;99151.09;4951892;29;20083;-77
2022/04/23 10:07:10;;;;;;;24.58;12.95;;;;;;;15.01;46.57;99202.88;4950751;28;20106;-76
2022/04/23 10:51:29;;;;;;;21.73;10.30;;;;;;;17.15;41.35;99176.34;4972751;28;20053;-76
2022/04/23 10:55:48;;;;;;;24.10;11.43;;;;;;;17.17;40.66;99178.78;4941260;29;20102;-77
2022/04/23 11:12:28;;;;;;;;;;;;;;;17.30;39.46;99154.81;4946654;28;20516;-77
2022/04/23 11:15:46;;;;;;;23.05;12.95;;;;;;;17.36;39.04;99136.91;4874265;29;20423;-76
2022/04/23 11:18:29;;;;;;;24.95;11.73;;;;;;;17.57;39.05;99155.41;4888954;29;20084;-77
2022/04/23 11:21:30;;;;;;;32.60;13.15;;;;;;;17.27;38.63;99090.00;4931096;29;20083;-77
2022/04/23 11:24:39;;;;;;;21.98;11.88;;;;;;;17.67;38.12;99129.31;4944278;29;20052;-77
2022/04/23 11:39:42;;;;;;;;;;;;;;;17.31;38.62;99139.06;4892806;29;20053;-75
2022/04/23 11:42:38;;;;;;;41.08;18.40;;;;;;;16.85;38.94;99109.25;4883915;29;19932;-78
2022/04/23 11:45:28;;;;;;;52.63;22.58;;;;;;;16.72;38.89;99108.38;4935428;29;20066;-78
2022/04/23 11:52:29;;;;;;;26.30;12.85;;;;;;;16.97;39.07;99138.91;4934069;28;20051;-78
2022/04/23 11:55:36;;;;;;;31.35;12.63;;;;;;;16.65;38.66;99067.50;4949728;28;20524;-79
2022/04/23 12:02:40;;;;;;;25.23;12.65;;;;;;;18.36;36.31;99071.69;4854176;29;20507;-79
2022/04/23 12:08:31;;;;;;;32.15;13.98;;;;;;;19.27;35.36;99108.50;4857904;29;20053;-79
2022/04/23 13:10:23;;;;;;;28.10;10.57;;;;;;;18.99;33.29;99078.81;4956515;26;20094;-80
2022/04/23 13:13:19;;;;;;;22.42;11.45;;;;;;;19.07;32.96;99035.53;4981574;28;20506;-79
2022/04/23 13:16:24;;;;;;;28.75;10.73;;;;;;;19.20;33.25;99036.28;4927555;28;20055;-79
2022/04/23 13:20:49;;;;;;;20.35;10.27;;;;;;;19.23;32.87;99043.09;4927639;28;20403;-79
2022/04/23 15:52:44;;;;;;;17.38;5.80;;;;;;;15.64;36.99;98958.59;4873225;29;20057;-78
2022/04/23 16:00:01;;;;;;;;;;;;;;;;;;;;;
2022/04/23 16:07:17;;;;;;;13.02;5.95;;;;;;;15.80;37.76;99027.75;4938586;29;20110;-78
2022/04/23 16:16:25;;;;;;;15.30;5.75;;;;;;;15.41;37.87;99005.66;4930170;29;20047;-77
2022/04/23 16:23:08;;;;;;;18.52;6.93;;;;;;;15.08;38.38;98965.66;4930926;29;20064;-76
2022/04/23 16:25:37;;;;;;;20.42;7.38;;;;;;;15.48;38.31;99029.94;4911661;29;20056;-77
2022/04/23 16:35:07;;;;;;;14.23;7.00;;;;;;;15.32;38.94;99036.75;4922150;29;20517;-77
2022/04/23 16:49:26;;;;;;;12.93;6.00;;;;;;;15.11;39.89;99050.34;4923227;29;20516;-77
2022/04/23 16:52:05;;;;;;;14.70;6.22;;;;;;;14.96;40.46;99031.56;4930162;29;20160;-76
2022/04/23 16:55:24;;;;;;;13.90;6.78;;;;;;;14.77;40.67;99012.63;4927250;29;20467;-77
2022/04/23 16:58:11;;;;;;;15.18;7.15;;;;;;;14.57;40.86;98999.13;4928401;29;20130;-77
2022/04/23 17:00:55;;;;;;;20.17;7.45;;;;;;;14.71;41.08;99021.03;4934924;29;20051;-77
2022/04/23 17:03:52;;;;;;;17.80;6.95;;;;;;;14.68;41.38;99023.59;4918696;29;20056;-76
2022/04/23 17:07:09;;;;;;;16.92;7.38;;;;;;;14.76;41.77;99047.56;4875971;29;20139;-77
2022/04/23 17:13:56;;;;;;;18.05;7.90;;;;;;;14.27;42.15;98993.41;4922058;29;20047;-77
2022/04/23 17:16:22;;;;;;;16.65;6.65;;;;;;;14.62;42.10;99066.94;4929335;29;20064;-76
2022/04/23 17:18:49;;;;;;;15.02;7.07;;;;;;;14.20;42.27;98990.28;4939119;29;20146;-76
2022/04/23 17:30:06;;;;;;;19.38;6.38;;;;;;;14.43;42.49;99058.97;4841580;29;20080;-76
2022/04/23 17:32:33;;;;;;;15.32;6.30;;;;;;;14.38;42.52;99059.91;5055469;23;20155;-74
2022/04/23 17:35:35;;;;;;;11.20;6.05;;;;;;;13.93;42.69;98994.91;4948076;28;20102;-77
2022/04/23 17:41:19;;;;;;;23.10;7.55;;;;;;;14.20;43.51;99064.53;4925637;29;20479;-76
2022/04/23 17:43:45;;;;;;;13.32;7.13;;;;;;;14.22;43.33;99064.22;4932253;29;20048;-75